createdAt,value
2018-06-25T00:02:08.884Z,13.51
2018-06-25T00:04:38.575Z,13.50
2018-06-25T00:07:08.233Z,13.49
2018-06-25T00:09:37.903Z,13.54
2018-06-25T00:12:07.613Z,13.42
2018-06-25T00:14:37.275Z,13.43
2018-06-25T00:17:06.941Z,13.43
2018-06-25T00:19:36.716Z,13.41
2018-06-25T00:22:06.439Z,13.41
2018-06-25T00:24:36.136Z,13.42
2018-06-25T00:27:05.837Z,13.41
2018-06-25T00:29:35.533Z,13.40
2018-06-25T00:32:05.295Z,13.42
2018-06-25T00:34:34.978Z,13.41
2018-06-25T00:37:04.640Z,13.38
2018-06-25T00:39:34.565Z,13.42
2018-06-25T00:42:04.249Z,13.42
2018-06-25T00:44:33.960Z,13.46
2018-06-25T00:47:03.720Z,13.45
2018-06-25T00:49:33.383Z,13.53
2018-06-25T00:52:03.157Z,13.44
2018-06-25T00:54:32.837Z,13.41
2018-06-25T00:57:02.512Z,13.41
2018-06-25T00:59:43.253Z,13.37
2018-06-25T01:02:12.879Z,13.38
2018-06-25T01:04:49.251Z,13.36
2018-06-25T01:07:19.322Z,13.42
2018-06-25T01:09:49.289Z,13.41
2018-06-25T01:12:19.027Z,13.41
2018-06-25T01:14:48.724Z,13.38
2018-06-25T01:17:18.486Z,13.39
2018-06-25T01:19:48.156Z,13.35
2018-06-25T01:22:17.855Z,13.35
2018-06-25T01:24:47.535Z,13.35
2018-06-25T01:27:17.256Z,13.40
2018-06-25T01:29:46.943Z,13.43
2018-06-25T01:32:16.612Z,13.36
2018-06-25T01:34:52.761Z,13.33
2018-06-25T01:37:22.419Z,13.34
2018-06-25T01:39:52.136Z,13.36
2018-06-25T01:42:21.798Z,13.37
2018-06-25T01:44:51.445Z,13.37
2018-06-25T01:47:21.131Z,13.27
2018-06-25T01:49:50.772Z,13.29
2018-06-25T01:52:20.431Z,13.27
2018-06-25T01:54:50.136Z,13.25
2018-06-25T01:57:19.780Z,13.27
2018-06-25T01:59:49.458Z,13.28
2018-06-25T02:02:19.250Z,13.28
2018-06-25T02:04:48.920Z,13.28
2018-06-25T02:07:18.586Z,13.29
2018-06-25T02:09:48.288Z,13.27
2018-06-25T02:12:17.941Z,13.28
2018-06-25T02:14:47.613Z,13.29
2018-06-25T02:17:17.348Z,13.31
2018-06-25T02:19:47.038Z,13.27
2018-06-25T02:22:16.720Z,13.29
2018-06-25T02:24:46.452Z,13.34
2018-06-25T02:27:16.156Z,13.33
2018-06-25T02:29:45.804Z,13.30
2018-06-25T02:32:15.724Z,13.28
2018-06-25T02:34:45.429Z,13.28
2018-06-25T02:37:15.145Z,13.24
2018-06-25T02:39:44.792Z,13.21
2018-06-25T02:42:14.451Z,13.24
2018-06-25T02:44:44.169Z,13.23
2018-06-25T02:47:13.840Z,13.25
2018-06-25T02:49:43.492Z,13.23
2018-06-25T02:52:13.198Z,13.22
2018-06-25T02:54:42.861Z,13.24
2018-06-25T02:57:12.531Z,13.20
2018-06-25T02:59:42.247Z,13.20
2018-06-25T03:02:11.900Z,13.25
2018-06-25T03:04:41.573Z,13.28
2018-06-25T03:07:11.253Z,13.24
2018-06-25T03:09:40.968Z,13.27
2018-06-25T03:12:10.689Z,13.31
2018-06-25T03:14:40.596Z,13.29
2018-06-25T03:17:10.241Z,13.32
2018-06-25T03:19:39.907Z,13.31
2018-06-25T03:22:09.600Z,13.29
2018-06-25T03:24:39.256Z,13.28
2018-06-25T03:27:08.900Z,13.24
2018-06-25T03:29:38.585Z,13.27
2018-06-25T03:32:08.236Z,13.28
2018-06-25T03:34:37.896Z,13.29
2018-06-25T03:37:07.596Z,13.31
2018-06-25T03:39:37.265Z,13.30
2018-06-25T03:42:07.111Z,13.30
2018-06-25T03:44:36.781Z,13.35
2018-06-25T03:47:06.443Z,13.35
2018-06-25T03:49:36.220Z,13.34
2018-06-25T03:52:05.914Z,13.33
2018-06-25T03:54:35.601Z,13.30
2018-06-25T03:57:11.896Z,13.30
2018-06-25T03:59:41.543Z,13.29
2018-06-25T04:02:11.283Z,13.29
2018-06-25T04:04:40.940Z,13.35
2018-06-25T04:07:10.588Z,13.38
2018-06-25T04:09:40.296Z,13.40
2018-06-25T04:12:10.013Z,13.42
2018-06-25T04:14:39.638Z,13.42
2018-06-25T04:17:09.316Z,13.50
2018-06-25T04:19:38.961Z,13.50
2018-06-25T04:22:08.628Z,13.49
2018-06-25T04:24:38.304Z,13.44
2018-06-25T04:27:07.947Z,13.41
2018-06-25T04:29:37.608Z,13.44
2018-06-25T04:32:07.304Z,13.46
2018-06-25T04:34:36.955Z,13.53
2018-06-25T04:37:06.634Z,13.56
2018-06-25T04:39:36.369Z,13.57
2018-06-25T04:42:06.059Z,13.64
2018-06-25T04:44:35.739Z,13.69
2018-06-25T04:47:05.447Z,13.73
2018-06-25T04:49:35.115Z,13.73
2018-06-25T04:52:04.857Z,13.73
2018-06-25T04:54:34.648Z,13.76
2018-06-25T04:57:04.375Z,13.73
2018-06-25T04:59:34.071Z,13.72
2018-06-25T05:02:03.756Z,13.81
2018-06-25T05:04:33.389Z,13.82
2018-06-25T05:07:03.076Z,13.80
2018-06-25T05:09:32.720Z,13.80
2018-06-25T05:12:02.360Z,13.79
2018-06-25T05:14:32.069Z,13.81
2018-06-25T05:17:01.752Z,13.81
2018-06-25T05:19:31.405Z,13.85
2018-06-25T05:22:01.120Z,13.92
2018-06-25T05:24:30.820Z,13.94
2018-06-25T05:27:00.516Z,14.02
2018-06-25T05:29:30.324Z,14.02
2018-06-25T05:32:00.055Z,14.07
2018-06-25T05:34:29.758Z,14.15
2018-06-25T05:36:59.497Z,14.20
2018-06-25T05:39:29.205Z,14.31
2018-06-25T05:41:58.891Z,14.37
2018-06-25T05:44:28.614Z,14.50
2018-06-25T05:46:58.264Z,14.54
2018-06-25T05:49:27.928Z,14.55
2018-06-25T05:51:57.680Z,14.57
2018-06-25T05:54:27.563Z,14.48
2018-06-25T05:56:57.252Z,14.55
2018-06-25T05:59:26.929Z,14.63
2018-06-25T06:01:56.611Z,14.73
2018-06-25T06:04:26.297Z,14.78
2018-06-25T06:06:55.997Z,14.81
2018-06-25T06:09:25.641Z,14.88
2018-06-25T06:11:55.348Z,14.90
2018-06-25T06:14:25.000Z,14.89
2018-06-25T06:16:54.671Z,14.87
2018-06-25T06:19:24.371Z,14.95
2018-06-25T06:21:54.068Z,14.98
2018-06-25T06:24:23.751Z,15.01
2018-06-25T06:26:53.425Z,15.03
2018-06-25T06:29:23.052Z,15.00
2018-06-25T06:31:52.680Z,15.03
2018-06-25T06:34:22.363Z,15.19
2018-06-25T06:36:52.036Z,15.22
2018-06-25T06:39:21.679Z,15.30
2018-06-25T06:41:51.375Z,15.35
2018-06-25T06:44:21.013Z,15.48
2018-06-25T06:46:50.671Z,15.56
2018-06-25T06:49:21.903Z,15.72
2018-06-25T06:51:51.550Z,15.86
2018-06-25T06:54:21.260Z,15.98
2018-06-25T06:56:50.900Z,16.15
2018-06-25T06:59:20.591Z,16.16
2018-06-25T07:01:50.260Z,15.91
2018-06-25T07:04:19.886Z,15.87
2018-06-25T07:06:49.537Z,15.95
2018-06-25T07:09:19.239Z,15.80
2018-06-25T07:11:48.880Z,15.83
2018-06-25T07:14:18.528Z,15.92
2018-06-25T07:16:48.206Z,15.93
2018-06-25T07:19:17.817Z,15.87
2018-06-25T07:21:47.456Z,15.89
2018-06-25T07:24:17.133Z,15.90
2018-06-25T07:26:46.781Z,15.91
2018-06-25T07:29:16.469Z,16.00
2018-06-25T07:31:46.125Z,16.02
2018-06-25T07:34:15.789Z,16.13
2018-06-25T07:36:45.463Z,16.14
2018-06-25T07:39:15.140Z,16.26
2018-06-25T07:41:44.836Z,16.30
2018-06-25T07:44:14.505Z,16.34
2018-06-25T07:46:44.196Z,16.54
2018-06-25T07:49:13.864Z,16.68
2018-06-25T07:51:43.529Z,16.85
2018-06-25T07:54:13.440Z,16.86
2018-06-25T07:56:43.100Z,16.90
2018-06-25T07:59:12.729Z,16.71
2018-06-25T08:01:42.420Z,16.68
2018-06-25T08:04:12.037Z,16.78
2018-06-25T08:06:41.667Z,16.77
2018-06-25T08:09:12.178Z,16.83
2018-06-25T08:11:41.847Z,16.86
2018-06-25T08:14:11.508Z,16.89
2018-06-25T08:16:41.321Z,17.20
2018-06-25T08:19:10.934Z,17.34
2018-06-25T08:21:40.595Z,17.38
2018-06-25T08:24:10.348Z,17.41
2018-06-25T08:26:40.059Z,17.35
2018-06-25T08:29:10.688Z,17.37
2018-06-25T08:31:40.398Z,17.53
2018-06-25T08:34:10.212Z,17.53
2018-06-25T08:36:39.865Z,17.55
2018-06-25T08:39:11.816Z,17.67
2018-06-25T08:41:41.993Z,17.63
2018-06-25T08:44:11.688Z,17.55
2018-06-25T08:46:41.313Z,17.60
2018-06-25T08:49:11.182Z,17.75
2018-06-25T08:51:40.903Z,17.70
2018-06-25T08:54:10.584Z,17.75
2018-06-25T08:56:40.312Z,17.77
2018-06-25T08:59:10.207Z,17.84
2018-06-25T09:01:39.873Z,17.72
2018-06-25T09:04:09.587Z,17.57
2018-06-25T09:06:39.237Z,17.56
2018-06-25T09:09:10.940Z,17.66
2018-06-25T09:11:40.588Z,17.61
2018-06-25T09:14:10.377Z,17.66
2018-06-25T09:16:40.083Z,17.80
2018-06-25T09:19:09.729Z,17.84
2018-06-25T09:21:39.445Z,17.78
2018-06-25T09:24:09.121Z,17.75
2018-06-25T09:26:41.740Z,17.70
2018-06-25T09:29:12.403Z,17.77
2018-06-25T09:31:42.101Z,17.92
2018-06-25T09:34:16.821Z,18.06
2018-06-25T09:36:46.616Z,18.19
2018-06-25T09:39:16.304Z,18.18
2018-06-25T09:41:46.170Z,18.29
2018-06-25T09:44:15.721Z,18.24
2018-06-25T09:46:45.389Z,17.96
2018-06-25T09:49:15.094Z,17.94
2018-06-25T09:51:44.761Z,17.80
2018-06-25T09:54:14.466Z,17.68
2018-06-25T09:56:44.228Z,17.77
2018-06-25T09:59:13.909Z,18.18
2018-06-25T10:01:43.648Z,18.44
2018-06-25T10:04:13.359Z,18.51
2018-06-25T10:06:43.034Z,18.39
2018-06-25T10:09:13.165Z,18.21
2018-06-25T10:11:42.830Z,18.01
2018-06-25T10:14:12.542Z,18.06
2018-06-25T10:16:42.216Z,18.17
2018-06-25T10:19:11.880Z,18.16
2018-06-25T10:21:41.601Z,18.13
2018-06-25T10:24:11.284Z,18.11
2018-06-25T10:26:40.953Z,18.18
2018-06-25T10:29:10.646Z,18.21
2018-06-25T10:31:40.297Z,18.25
2018-06-25T10:34:09.949Z,18.18
2018-06-25T10:36:39.637Z,18.21
2018-06-25T10:39:10.803Z,18.17
2018-06-25T10:41:40.514Z,18.19
2018-06-25T10:44:10.339Z,18.22
2018-06-25T10:46:40.008Z,18.17
2018-06-25T10:49:09.737Z,18.30
2018-06-25T10:51:39.393Z,18.39
2018-06-25T10:54:09.311Z,18.43
2018-06-25T10:56:39.004Z,18.50
2018-06-25T10:59:08.664Z,18.39
2018-06-25T11:01:38.474Z,18.14
2018-06-25T11:04:08.272Z,18.04
2018-06-25T11:06:37.989Z,18.06
2018-06-25T11:09:09.868Z,18.05
2018-06-25T11:11:39.553Z,18.27
2018-06-25T11:14:09.311Z,18.36
2018-06-25T11:16:39.029Z,18.37
2018-06-25T11:19:08.717Z,18.51
2018-06-25T11:21:38.461Z,18.41
2018-06-25T11:24:08.168Z,18.61
2018-06-25T11:26:37.854Z,18.68
2018-06-25T11:29:07.573Z,18.99
2018-06-25T11:31:37.237Z,19.40
2018-06-25T11:34:06.908Z,19.54
2018-06-25T11:36:36.632Z,19.71
2018-06-25T11:39:08.862Z,19.72
2018-06-25T11:41:38.627Z,19.75
2018-06-25T11:44:08.339Z,19.72
2018-06-25T11:46:38.000Z,19.73
2018-06-25T11:49:07.709Z,19.77
2018-06-25T11:51:37.364Z,19.81
2018-06-25T11:54:07.772Z,19.58
2018-06-25T11:56:37.434Z,19.69
2018-06-25T11:59:07.148Z,19.61
2018-06-25T12:01:36.883Z,19.75
2018-06-25T12:04:06.602Z,19.71
2018-06-25T12:06:36.314Z,19.65
2018-06-25T12:09:07.874Z,19.54
2018-06-25T12:11:37.576Z,19.43
2018-06-25T12:14:07.326Z,19.33
2018-06-25T12:16:37.443Z,19.25
2018-06-25T12:19:07.122Z,19.20
2018-06-25T12:21:37.232Z,19.40
2018-06-25T12:24:06.947Z,19.50
2018-06-25T12:26:36.632Z,19.57
2018-06-25T12:29:06.366Z,19.76
2018-06-25T12:31:36.196Z,19.84
2018-06-25T12:34:05.829Z,19.89
2018-06-25T12:36:35.513Z,20.02
2018-06-25T12:39:08.231Z,19.99
2018-06-25T12:41:37.921Z,19.81
2018-06-25T12:44:08.469Z,19.73
2018-06-25T12:46:38.824Z,19.73
2018-06-25T12:49:08.508Z,19.62
2018-06-25T12:51:38.212Z,19.54
2018-06-25T12:54:07.852Z,19.58
2018-06-25T12:56:37.515Z,19.37
2018-06-25T12:59:07.223Z,19.18
2018-06-25T13:01:36.946Z,19.13
2018-06-25T13:04:06.898Z,19.14
2018-06-25T13:06:36.690Z,19.22
2018-06-25T13:09:09.500Z,19.19
2018-06-25T13:11:39.245Z,19.15
2018-06-25T13:14:09.303Z,19.16
2018-06-25T13:16:39.005Z,19.15
2018-06-25T13:19:08.715Z,19.23
2018-06-25T13:21:38.380Z,19.27
2018-06-25T13:24:08.104Z,19.46
2018-06-25T13:26:37.760Z,19.54
2018-06-25T13:29:07.524Z,19.66
2018-06-25T13:31:37.224Z,19.66
2018-06-25T13:34:06.900Z,19.68
2018-06-25T13:36:36.556Z,19.71
2018-06-25T13:39:08.611Z,19.75
2018-06-25T13:41:38.264Z,19.78
2018-06-25T13:44:07.924Z,19.79
2018-06-25T13:46:37.632Z,19.61
2018-06-25T13:49:07.288Z,19.63
2018-06-25T13:51:36.919Z,19.82
2018-06-25T13:54:06.750Z,19.91
2018-06-25T13:56:36.956Z,19.88
2018-06-25T13:59:06.708Z,19.97
2018-06-25T14:01:36.431Z,20.01
2018-06-25T14:04:06.472Z,19.98
2018-06-25T14:06:36.144Z,19.83
2018-06-25T14:09:08.265Z,19.89
2018-06-25T14:11:37.980Z,19.79
2018-06-25T14:14:08.395Z,19.93
2018-06-25T14:16:38.648Z,19.86
2018-06-25T14:19:08.458Z,19.77
2018-06-25T14:21:38.148Z,19.84
2018-06-25T14:24:13.106Z,19.85
2018-06-25T14:26:43.273Z,19.81
2018-06-25T14:29:18.290Z,19.94
2018-06-25T14:31:47.965Z,20.04
2018-06-25T14:34:23.076Z,20.02
2018-06-25T14:36:52.983Z,20.09
2018-06-25T14:39:22.736Z,19.98
2018-06-25T14:41:52.452Z,20.00
2018-06-25T14:44:22.140Z,19.97
2018-06-25T14:46:51.897Z,19.98
2018-06-25T14:49:21.614Z,19.88
2018-06-25T14:51:51.362Z,19.93
2018-06-25T14:54:21.077Z,19.95
2018-06-25T14:56:50.839Z,19.90
2018-06-25T14:59:20.655Z,20.01
2018-06-25T15:01:50.509Z,20.14
2018-06-25T15:04:20.285Z,20.02
2018-06-25T15:06:49.980Z,19.91
2018-06-25T15:09:19.646Z,19.88
2018-06-25T15:11:49.376Z,19.83
2018-06-25T15:14:19.064Z,19.83
2018-06-25T15:16:48.724Z,19.81
2018-06-25T15:19:18.567Z,19.90
2018-06-25T15:21:48.244Z,19.93
2018-06-25T15:24:17.990Z,19.89
2018-06-25T15:26:48.049Z,19.69
2018-06-25T15:29:17.693Z,19.63
2018-06-25T15:31:47.504Z,19.71
2018-06-25T15:34:17.173Z,19.66
2018-06-25T15:36:46.860Z,19.70
2018-06-25T15:39:16.714Z,19.71
2018-06-25T15:41:46.447Z,19.66
2018-06-25T15:44:16.122Z,19.72
2018-06-25T15:46:45.805Z,19.79
2018-06-25T15:49:15.453Z,19.81
2018-06-25T15:51:45.167Z,19.72
2018-06-25T15:54:14.810Z,19.66
2018-06-25T15:56:44.494Z,19.58
2018-06-25T15:59:14.221Z,19.59
2018-06-25T16:01:43.875Z,19.66
2018-06-25T16:04:13.592Z,19.72
2018-06-25T16:06:43.376Z,19.94
2018-06-25T16:09:13.065Z,19.74
2018-06-25T16:11:42.743Z,19.81
2018-06-25T16:14:12.453Z,19.82
2018-06-25T16:16:42.120Z,19.86
2018-06-25T16:19:11.787Z,19.84
2018-06-25T16:21:41.712Z,19.77
2018-06-25T16:24:11.345Z,19.72
2018-06-25T16:26:40.963Z,19.67
2018-06-25T16:29:10.727Z,19.74
2018-06-25T16:31:40.388Z,19.84
2018-06-25T16:34:10.134Z,19.93
2018-06-25T16:36:40.788Z,19.99
2018-06-25T16:39:12.339Z,20.11
2018-06-25T16:41:42.105Z,20.10
2018-06-25T16:44:11.751Z,20.06
2018-06-25T16:46:41.436Z,20.08
2018-06-25T16:49:11.154Z,20.16
2018-06-25T16:51:40.788Z,20.14
2018-06-25T16:54:10.487Z,20.10
2018-06-25T16:56:40.147Z,20.19
2018-06-25T16:59:09.811Z,20.09
2018-06-25T17:01:39.520Z,19.94
2018-06-25T17:04:09.165Z,19.96
2018-06-25T17:06:38.839Z,19.91
2018-06-25T17:09:11.050Z,19.87
2018-06-25T17:11:41.532Z,19.80
2018-06-25T17:14:11.309Z,19.84
2018-06-25T17:16:40.980Z,19.85
2018-06-25T17:19:11.303Z,19.81
2018-06-25T17:21:40.974Z,19.83
2018-06-25T17:24:10.705Z,19.88
2018-06-25T17:26:40.385Z,19.93
2018-06-25T17:29:10.040Z,19.87
2018-06-25T17:31:39.664Z,19.86
2018-06-25T17:34:09.340Z,19.76
2018-06-25T17:36:38.984Z,19.73
2018-06-25T17:39:09.240Z,19.72
2018-06-25T17:41:38.875Z,19.63
2018-06-25T17:44:08.583Z,19.71
2018-06-25T17:46:38.265Z,19.69
2018-06-25T17:49:07.899Z,19.59
2018-06-25T17:51:37.579Z,19.54
2018-06-25T17:54:07.319Z,19.47
2018-06-25T17:56:36.956Z,19.48
2018-06-25T17:59:06.736Z,19.36
2018-06-25T18:01:36.549Z,19.35
2018-06-25T18:04:06.208Z,19.26
2018-06-25T18:06:35.872Z,19.22
2018-06-25T18:09:08.912Z,19.15
2018-06-25T18:11:38.544Z,19.04
2018-06-25T18:14:08.260Z,19.07
2018-06-25T18:16:37.914Z,19.04
2018-06-25T18:19:07.648Z,18.98
2018-06-25T18:21:37.331Z,18.95
2018-06-25T18:24:07.020Z,18.88
2018-06-25T18:26:36.688Z,18.93
2018-06-25T18:29:06.387Z,18.90
2018-06-25T18:31:36.588Z,18.83
2018-06-25T18:34:06.319Z,18.82
2018-06-25T18:36:35.980Z,18.81
2018-06-25T18:39:08.827Z,18.70
2018-06-25T18:41:38.532Z,18.75
2018-06-25T18:44:08.292Z,18.72
2018-06-25T18:46:38.029Z,18.70
2018-06-25T18:49:07.835Z,18.61
2018-06-25T18:51:37.535Z,18.62
2018-06-25T18:54:07.192Z,18.59
2018-06-25T18:56:36.823Z,18.58
2018-06-25T18:59:06.560Z,18.59
2018-06-25T19:01:36.220Z,18.55
2018-06-25T19:04:06.433Z,18.47
2018-06-25T19:06:36.073Z,18.46
2018-06-25T19:09:10.285Z,18.41
2018-06-25T19:11:40.268Z,18.41
2018-06-25T19:14:09.923Z,18.38
2018-06-25T19:16:39.628Z,18.31
2018-06-25T19:19:09.314Z,18.29
2018-06-25T19:21:38.957Z,18.25
2018-06-25T19:24:08.670Z,18.28
2018-06-25T19:26:38.332Z,18.26
2018-06-25T19:29:08.077Z,18.23
2018-06-25T19:31:37.721Z,18.26
2018-06-25T19:34:07.443Z,18.23
2018-06-25T19:36:37.120Z,18.20
2018-06-25T19:39:09.960Z,18.14
2018-06-25T19:41:39.764Z,18.18
2018-06-25T19:44:09.906Z,18.20
2018-06-25T19:46:39.648Z,18.18
2018-06-25T19:49:09.752Z,18.18
2018-06-25T19:51:39.458Z,18.20
2018-06-25T19:54:09.274Z,18.15
2018-06-25T19:56:38.911Z,18.11
2018-06-25T19:59:08.588Z,18.14
2018-06-25T20:01:38.260Z,18.11
2018-06-25T20:04:07.970Z,18.18
2018-06-25T20:06:37.720Z,18.18
2018-06-25T20:09:10.419Z,18.27
2018-06-25T20:11:40.252Z,18.40
2018-06-25T20:14:10.001Z,18.34
2018-06-25T20:16:39.800Z,18.27
2018-06-25T20:19:09.494Z,18.12
2018-06-25T20:21:39.425Z,18.00
2018-06-25T20:24:09.257Z,17.95
2018-06-25T20:26:38.938Z,17.78
2018-06-25T20:29:08.684Z,17.65
2018-06-25T20:31:38.409Z,17.57
2018-06-25T20:34:08.167Z,17.55
2018-06-25T20:36:37.869Z,17.48
2018-06-25T20:39:10.205Z,17.44
2018-06-25T20:41:39.955Z,17.42
2018-06-25T20:44:09.707Z,17.38
2018-06-25T20:46:39.448Z,17.33
2018-06-25T20:49:09.108Z,17.29
2018-06-25T20:51:38.816Z,17.24
2018-06-25T20:54:08.889Z,17.26
2018-06-25T20:56:38.637Z,17.14
2018-06-25T20:59:08.372Z,17.13
2018-06-25T21:01:38.061Z,17.07
2018-06-25T21:04:07.761Z,17.05
2018-06-25T21:06:37.528Z,17.05
2018-06-25T21:09:09.508Z,16.94
2018-06-25T21:11:39.356Z,16.91
2018-06-25T21:14:09.023Z,16.82
2018-06-25T21:16:38.704Z,16.88
2018-06-25T21:19:08.398Z,16.84
2018-06-25T21:21:38.163Z,16.79
2018-06-25T21:24:07.881Z,16.75
2018-06-25T21:26:37.623Z,16.70
2018-06-25T21:29:07.321Z,16.72
2018-06-25T21:31:37.018Z,16.70
2018-06-25T21:34:06.866Z,16.66
2018-06-25T21:36:36.584Z,16.70
2018-06-25T21:39:08.197Z,16.60
2018-06-25T21:41:37.866Z,16.60
2018-06-25T21:44:07.628Z,16.59
2018-06-25T21:46:37.325Z,16.71
2018-06-25T21:49:07.020Z,16.61
2018-06-25T21:51:36.732Z,16.60
2018-06-25T21:54:06.485Z,16.59
2018-06-25T21:56:36.136Z,16.57
2018-06-25T21:59:06.089Z,16.59
2018-06-25T22:01:36.231Z,16.59
2018-06-25T22:04:05.983Z,16.57
2018-06-25T22:06:35.712Z,16.52
2018-06-25T22:09:08.764Z,16.49
2018-06-25T22:11:38.476Z,16.45
2018-06-25T22:14:09.026Z,16.44
2018-06-25T22:16:38.819Z,16.44
2018-06-25T22:19:08.506Z,16.43
2018-06-25T22:21:38.284Z,16.40
2018-06-25T22:24:08.277Z,16.42
2018-06-25T22:26:37.986Z,16.46
2018-06-25T22:29:08.052Z,16.36
2018-06-25T22:31:37.800Z,16.35
2018-06-25T22:34:07.540Z,16.28
2018-06-25T22:36:37.322Z,16.25
2018-06-25T22:39:09.966Z,16.18
2018-06-25T22:41:40.388Z,16.14
2018-06-25T22:44:13.945Z,16.09
2018-06-25T22:46:44.524Z,16.06
2018-06-25T22:49:14.223Z,16.05
2018-06-25T22:51:43.913Z,15.96
2018-06-25T22:54:13.664Z,15.96
2018-06-25T22:56:43.419Z,15.94
2018-06-25T22:59:13.183Z,15.93
2018-06-25T23:01:42.860Z,15.87
2018-06-25T23:04:12.587Z,15.95
2018-06-25T23:06:42.328Z,15.92
2018-06-25T23:09:12.549Z,15.88
2018-06-25T23:11:42.311Z,15.90
2018-06-25T23:14:11.977Z,15.91
2018-06-25T23:16:41.665Z,15.93
2018-06-25T23:19:11.376Z,15.91
2018-06-25T23:21:41.082Z,15.84
2018-06-25T23:24:10.781Z,15.87
2018-06-25T23:26:40.557Z,15.88
2018-06-25T23:29:10.223Z,15.81
2018-06-25T23:31:39.895Z,15.77
2018-06-25T23:34:09.652Z,15.71
2018-06-25T23:36:39.420Z,15.67
2018-06-25T23:39:10.966Z,15.66
2018-06-25T23:41:41.043Z,15.58
2018-06-25T23:44:11.020Z,15.51
2018-06-25T23:46:40.739Z,15.52
2018-06-25T23:49:10.385Z,15.50
2018-06-25T23:51:40.104Z,15.41
2018-06-25T23:54:09.788Z,15.43
2018-06-25T23:56:39.485Z,15.31
2018-06-25T23:59:09.202Z,15.24
